Time;durP1;ratioP1;P1;durP2;ratioP2;P2;SDS_P1;SDS_P2;PMS_P1;PMS_P2;Temp;Humidity;BMP_temperature;BMP_pressure;BME280_temperature;BME280_humidity;BME280_pressure;Samples;Min_cycle;Max_cycle;Signal;HPM_P1;HPM_P2
2022/12/27 00:02:01;;;;;;;6.20;2.10;;;14.70;93.20;;;;;;5055360;28;20044;-72
2022/12/27 00:04:28;;;;;;;5.05;1.80;;;;;;;;;;5048116;28;20052;-71
2022/12/27 00:06:54;;;;;;;6.80;1.95;;;;;;;;;;5019448;28;20045;-67
2022/12/27 00:09:20;;;;;;;5.65;2.05;;;;;;;;;;5020597;28;20430;-64
2022/12/27 00:11:46;;;;;;;8.27;2.25;;;15.00;93.10;;;;;;5020160;28;20558;-66
2022/12/27 00:14:12;;;;;;;8.82;2.25;;;14.80;93.50;;;;;;5055464;28;20061;-67
2022/12/27 00:16:38;;;;;;;7.63;2.30;;;14.70;92.30;;;;;;5067938;28;20051;-67
2022/12/27 00:19:04;;;;;;;4.57;2.03;;;14.70;93.60;;;;;;5075220;28;20052;-65
2022/12/27 00:21:29;;;;;;;7.78;2.28;;;14.40;92.40;;;;;;5056128;28;20045;-64
2022/12/27 00:23:56;;;;;;;6.90;2.30;;;14.70;93.70;;;;;;5055154;28;20124;-67
2022/12/27 00:26:40;;;;;;;6.75;1.83;;;14.50;92.50;;;;;;5061725;28;20372;-67
2022/12/27 00:29:06;;;;;;;6.68;2.22;;;14.30;93.60;;;;;;5073061;28;20055;-67
2022/12/27 00:31:32;;;;;;;6.80;2.22;;;14.50;92.50;;;;;;5074236;28;20119;-67
2022/12/27 00:33:59;;;;;;;5.72;2.20;;;14.60;93.70;;;;;;5075440;28;20043;-67
2022/12/27 00:36:26;;;;;;;5.03;2.05;;;14.70;93.60;;;;;;5070039;28;20428;-64
2022/12/27 00:38:52;;;;;;;8.18;2.30;;;14.60;93.60;;;;;;5035433;28;20037;-67
2022/12/27 00:41:18;;;;;;;7.13;2.50;;;14.60;93.50;;;;;;5035321;28;20364;-67
2022/12/27 00:43:44;;;;;;;6.43;2.10;;;14.60;92.30;;;;;;5035061;28;20045;-67
2022/12/27 00:46:10;;;;;;;6.32;2.47;;;14.70;93.50;;;;;;5039921;28;20048;-68
2022/12/27 00:48:36;;;;;;;5.82;2.00;;;14.80;93.60;;;;;;5075099;28;20525;-66
2022/12/27 00:51:07;;;;;;;5.82;2.20;;;14.70;93.40;;;;;;5073775;28;20482;-69
2022/12/27 00:53:33;;;;;;;5.72;2.00;;;14.40;93.30;;;;;;5070114;28;20040;-67
2022/12/27 00:55:59;;;;;;;6.95;2.35;;;14.80;93.40;;;;;;5036924;28;20081;-66
2022/12/27 00:58:25;;;;;;;7.97;2.47;;;14.60;93.30;;;;;;5074932;28;20068;-66
2022/12/27 01:00:51;;;;;;;5.65;1.92;;;14.60;93.20;;;;;;5074557;28;20123;-67
2022/12/27 01:03:17;;;;;;;7.13;2.30;;;14.60;92.00;;;;;;5074847;28;20119;-67
2022/12/27 01:05:43;;;;;;;5.07;1.88;;;14.60;93.20;;;;;;5074793;28;20081;-66
2022/12/27 01:08:09;;;;;;;6.47;1.92;;;14.40;91.80;;;;;;5072255;28;20044;-67
2022/12/27 01:10:35;;;;;;;6.90;2.05;;;;;;;;;;5067450;28;20051;-67
2022/12/27 01:13:02;;;;;;;7.65;2.10;;;14.60;93.20;;;;;;5034772;28;20380;-67
2022/12/27 01:15:28;;;;;;;6.03;1.80;;;14.80;92.00;;;;;;5034796;28;20514;-68
2022/12/27 01:17:54;;;;;;;6.25;2.15;;;14.70;93.20;;;;;;5071704;28;20044;-67
2022/12/27 01:20:19;;;;;;;6.35;1.90;;;14.30;91.80;;;;;;5074140;28;20071;-67
2022/12/27 01:22:45;;;;;;;7.05;2.90;;;14.60;93.20;;;;;;5074501;28;20059;-67
2022/12/27 01:25:11;;;;;;;6.50;2.15;;;14.50;93.30;;;;;;5074410;28;20528;-67
2022/12/27 01:27:37;;;;;;;5.93;1.83;;;14.50;93.10;;;;;;5066226;28;20425;-67
2022/12/27 01:30:04;;;;;;;5.32;1.95;;;14.80;93.20;;;;;;5034361;28;20045;-68
2022/12/27 01:32:32;;;;;;;7.13;2.85;;;14.50;91.70;;;;;;5034412;28;20045;-68
2022/12/27 01:34:58;;;;;;;5.38;2.38;;;;;;;;;;5034039;28;20049;-69
2022/12/27 01:37:24;;;;;;;6.93;1.90;;;14.50;91.80;;;;;;5060007;28;20044;-68
2022/12/27 01:39:49;;;;;;;7.20;2.13;;;14.30;93.00;;;;;;5074137;28;20048;-69
2022/12/27 01:45:00;;;;;;;5.10;2.00;;;14.40;93.00;;;;;;5061143;28;20110;-68
2022/12/27 01:47:31;;;;;;;6.25;1.98;;;14.60;93.00;;;;;;5056273;28;20045;-72
2022/12/27 01:50:11;;;;;;;8.15;2.10;;;14.50;93.00;;;;;;5070147;28;20087;-71
2022/12/27 01:52:52;;;;;;;6.10;1.70;;;14.30;93.10;;;;;;5072894;28;20422;-66
2022/12/27 01:55:20;;;;;;;5.25;1.88;;;;;;;;;;5072838;28;20045;-67
2022/12/27 01:57:46;;;;;;;6.32;1.70;;;14.50;92.90;;;;;;5072289;28;20048;-66
2022/12/27 02:00:13;;;;;;;7.18;1.70;;;14.40;91.60;;;;;;5069890;28;20068;-67
2022/12/27 02:02:38;;;;;;;7.35;2.35;;;14.50;92.90;;;;;;5051059;28;20054;-65
2022/12/27 02:05:04;;;;;;;6.97;1.90;;;14.40;91.50;;;;;;5066215;28;20040;-71
2022/12/27 02:08:01;;;;;;;5.35;1.90;;;14.50;91.50;;;;;;5055542;28;20044;-67
2022/12/27 02:10:27;;;;;;;7.93;1.92;;;14.10;92.70;;;;;;5059940;28;20041;-66
2022/12/27 02:12:53;;;;;;;8.35;1.77;;;14.60;92.80;;;;;;5072150;28;20113;-67
2022/12/27 02:15:19;;;;;;;4.68;2.00;;;14.70;92.80;;;;;;5071350;28;20132;-66
2022/12/27 02:17:45;;;;;;;8.30;2.25;;;14.30;92.70;;;;;;5072188;28;20040;-66
2022/12/27 02:20:15;;;;;;;5.47;1.98;;;14.50;92.80;;;;;;5064286;28;20047;-72
2022/12/27 02:25:49;;;;;;;7.05;2.00;;;14.40;90.80;;;;;;5073521;28;20053;-71
2022/12/27 02:28:52;;;;;;;6.32;1.83;;;14.30;90.80;;;;;;5072388;28;20163;-66
2022/12/27 02:31:28;;;;;;;6.20;1.95;;;14.50;92.70;;;;;;5069798;28;20051;-67
2022/12/27 02:33:54;;;;;;;4.38;1.70;;;14.20;92.30;;;;;;5056614;28;20052;-67
2022/12/27 02:36:23;;;;;;;6.15;1.80;;;14.40;91.40;;;;;;5051142;28;20042;-66
2022/12/27 02:38:50;;;;;;;6.93;1.75;;;14.30;92.70;;;;;;5032144;28;20048;-66
2022/12/27 02:53:04;;;;;;;6.00;1.92;;;14.40;92.70;;;;;;5071570;28;20070;-66
2022/12/27 02:58:50;;;;;;;4.85;1.50;;;14.60;91.80;;;;;;5036997;28;20056;-65
2022/12/27 03:04:37;;;;;;;5.85;1.55;;;14.30;90.80;;;;;;5075693;28;20044;-65
2022/12/27 03:07:27;;;;;;;4.63;1.58;;;14.40;91.40;;;;;;5077156;28;20047;-67
2022/12/27 03:16:36;;;;;;;7.03;1.90;;;14.70;90.70;;;;;;5072704;28;20094;-66
2022/12/27 03:27:36;;;;;;;5.75;1.80;;;;;;;;;;5054976;28;20052;-67
2022/12/27 03:33:13;;;;;;;5.82;1.65;;;14.10;91.30;;;;;;5034936;28;20494;-69
2022/12/27 03:38:01;;;;;;;3.53;1.48;;;14.30;92.60;;;;;;5074339;28;20048;-66
2022/12/27 03:38:33;;;;;;;4.70;1.55;;;14.50;91.40;;;;;;5075419;28;20052;-65
2022/12/27 03:43:44;;;;;;;8.15;1.98;;;14.20;92.60;;;;;;5065770;28;20113;-66
2022/12/27 03:46:33;;;;;;;7.63;1.73;;;14.60;92.70;;;;;;5036383;28;20128;-69
2022/12/27 03:49:33;;;;;;;6.03;1.75;;;14.30;91.40;;;;;;5035416;28;20054;-71
2022/12/27 03:52:27;;;;;;;6.47;1.70;;;14.20;90.70;;;;;;5041965;28;20445;-68
2022/12/27 03:54:53;;;;;;;6.53;1.73;;;14.40;92.70;;;;;;5074753;28;20052;-65
2022/12/27 03:57:23;;;;;;;4.60;1.40;;;14.40;92.60;;;;;;5074631;28;20052;-68
2022/12/27 03:59:48;;;;;;;8.60;1.75;;;14.30;92.60;;;;;;5074964;28;20064;-67
2022/12/27 04:02:14;;;;;;;5.53;1.70;;;13.90;92.50;;;;;;5060622;28;20482;-66
2022/12/27 04:04:40;;;;;;;5.60;1.65;;;;;;;;;;5073969;28;20045;-66
2022/12/27 04:07:06;;;;;;;4.78;1.55;;;14.00;91.20;;;;;;5035697;28;20454;-67
2022/12/27 04:36:57;;;;;;;6.75;1.67;;;14.20;92.60;;;;;;5035086;28;20132;-67
2022/12/27 04:39:22;;;;;;;4.70;1.40;;;14.40;92.60;;;;;;5035130;28;20129;-66
2022/12/27 04:55:33;;;;;;;4.47;1.40;;;14.10;91.30;;;;;;5074098;28;20051;-66
2022/12/27 04:57:59;;;;;;;4.50;1.50;;;14.00;91.20;;;;;;5075013;28;20048;-66
2022/12/27 05:03:22;;;;;;;5.82;1.63;;;14.10;92.50;;;;;;4970742;28;20066;-66
2022/12/27 05:05:48;;;;;;;8.02;1.67;;;14.30;92.60;;;;;;4973886;28;20043;-66
2022/12/27 05:13:58;;;;;;;3.95;1.40;;;14.40;92.60;;;;;;4966517;28;20051;-66
2022/12/27 05:16:25;;;;;;;4.95;1.70;;;14.50;92.70;;;;;;4973671;28;20106;-67
2022/12/27 05:18:52;;;;;;;4.93;1.52;;;14.00;92.60;;;;;;4972724;28;20130;-66
2022/12/27 05:21:17;;;;;;;3.60;1.20;;;14.20;91.40;;;;;;4974106;28;20058;-67
2022/12/27 05:26:28;;;;;;;5.97;1.50;;;14.10;91.40;;;;;;4961596;28;20051;-66
2022/12/27 05:28:55;;;;;;;3.92;1.23;;;14.20;92.70;;;;;;4938048;29;20089;-67
2022/12/27 05:31:21;;;;;;;4.93;1.60;;;14.20;92.60;;;;;;4967869;28;20054;-72
2022/12/27 05:33:47;;;;;;;4.68;1.77;;;14.20;92.60;;;;;;4968614;28;20050;-71
2022/12/27 05:36:13;;;;;;;5.28;1.63;;;13.90;91.30;;;;;;4973378;28;20046;-71
2022/12/27 05:38:39;;;;;;;5.78;1.35;;;14.30;91.40;;;;;;4977635;28;20051;-71
2022/12/27 05:41:05;;;;;;;5.88;1.50;;;14.20;92.70;;;;;;5074159;28;20496;-67
2022/12/27 05:43:31;;;;;;;5.38;1.30;;;14.30;91.40;;;;;;5063520;28;20094;-67
2022/12/27 05:46:11;;;;;;;4.85;1.38;;;14.10;91.30;;;;;;5063503;28;20076;-67
2022/12/27 05:48:37;;;;;;;3.75;1.35;;;14.10;92.60;;;;;;5054062;28;20049;-66
2022/12/27 05:51:29;;;;;;;3.72;1.33;;;14.10;91.40;;;;;;5053428;28;20116;-63
2022/12/27 05:53:55;;;;;;;4.97;1.55;;;14.20;91.40;;;;;;5043064;28;20056;-67
2022/12/27 05:56:20;;;;;;;7.10;1.70;;;13.80;92.60;;;;;;5072960;28;20042;-66
2022/12/27 05:58:46;;;;;;;8.43;1.80;;;14.10;92.60;;;;;;5073926;28;20128;-66
2022/12/27 06:01:14;;;;;;;6.20;1.42;;;14.30;92.60;;;;;;5041507;28;20068;-67
2022/12/27 06:03:40;;;;;;;4.95;1.80;;;13.70;92.50;;;;;;5042881;28;20406;-67
2022/12/27 06:06:07;;;;;;;7.70;1.80;;;14.00;91.30;;;;;;5072406;28;20044;-67
2022/12/27 06:08:33;;;;;;;5.97;1.60;;;13.80;92.60;;;;;;5072272;28;20048;-67
2022/12/27 06:11:11;;;;;;;5.15;1.30;;;14.10;90.70;;;;;;5073475;28;20044;-67
2022/12/27 06:13:37;;;;;;;5.63;1.63;;;14.40;92.60;;;;;;5070774;28;20113;-65
2022/12/27 06:16:03;;;;;;;5.43;1.40;;;14.10;91.30;;;;;;5073706;28;20036;-67
2022/12/27 06:18:30;;;;;;;5.47;1.48;;;14.40;92.70;;;;;;5036631;28;20072;-69
2022/12/27 06:21:09;;;;;;;4.97;1.50;;;14.30;91.40;;;;;;5033256;28;20519;-68
2022/12/27 06:23:36;;;;;;;6.05;1.75;;;14.20;92.60;;;;;;5033303;28;20049;-67
2022/12/27 06:26:11;;;;;;;5.88;1.50;;;14.00;91.30;;;;;;5067107;28;20049;-67
2022/12/27 06:28:37;;;;;;;5.40;1.40;;;14.40;92.70;;;;;;5071973;28;20041;-69
2022/12/27 06:31:02;;;;;;;6.70;1.73;;;14.10;91.40;;;;;;5073523;28;20052;-68
2022/12/27 06:33:28;;;;;;;5.80;1.40;;;14.00;92.60;;;;;;5069838;28;20439;-67
2022/12/27 06:35:54;;;;;;;4.55;1.40;;;14.00;92.50;;;;;;5057457;28;20044;-65
2022/12/27 06:38:20;;;;;;;6.13;1.80;;;14.10;91.30;;;;;;5071018;28;20044;-66
2022/12/27 06:40:46;;;;;;;5.70;1.65;;;;;;;;;;5073435;28;20135;-69
2022/12/27 06:43:12;;;;;;;5.72;1.73;;;14.20;91.30;;;;;;5073106;28;20083;-69
2022/12/27 06:45:38;;;;;;;7.38;1.60;;;14.10;92.30;;;;;;5069892;28;20061;-69
2022/12/27 06:48:04;;;;;;;5.97;1.33;;;14.10;92.10;;;;;;5072933;28;20049;-65
2022/12/27 06:50:29;;;;;;;6.15;1.50;;;14.00;91.90;;;;;;5068544;28;20044;-65
2022/12/27 06:52:56;;;;;;;6.05;1.83;;;;;;;;;;5033035;28;20050;-67
2022/12/27 06:55:22;;;;;;;6.20;1.60;;;14.40;91.90;;;;;;5034048;28;20399;-63
2022/12/27 06:57:48;;;;;;;6.82;2.22;;;14.00;91.80;;;;;;5072974;28;20051;-67
2022/12/27 07:00:15;;;;;;;8.35;2.10;;;13.90;91.80;;;;;;5072941;28;20052;-67
2022/12/27 07:02:40;;;;;;;4.53;1.85;;;14.10;91.80;;;;;;5071737;28;20044;-68
2022/12/27 07:05:06;;;;;;;8.93;1.83;;;14.10;91.80;;;;;;5068474;28;20043;-67
2022/12/27 07:07:32;;;;;;;6.28;1.60;;;14.00;91.80;;;;;;5068542;28;20048;-67
2022/12/27 07:09:58;;;;;;;6.30;1.50;;;14.20;90.60;;;;;;5048682;28;20075;-68
2022/12/27 07:12:24;;;;;;;5.78;1.55;;;14.00;90.50;;;;;;5068613;28;20143;-64
2022/12/27 07:14:49;;;;;;;7.70;1.83;;;13.80;92.00;;;;;;5073132;28;20087;-66
2022/12/27 07:17:15;;;;;;;7.45;1.77;;;14.00;91.90;;;;;;5070449;28;20057;-67
2022/12/27 07:19:41;;;;;;;5.65;1.60;;;14.10;91.90;;;;;;5072958;28;20041;-67
2022/12/27 07:22:07;;;;;;;9.02;2.05;;;13.90;91.90;;;;;;5072745;28;20051;-67
2022/12/27 07:24:32;;;;;;;5.25;1.52;;;14.10;91.90;;;;;;5070218;28;20096;-67
2022/12/27 07:26:59;;;;;;;4.90;1.50;;;13.80;90.60;;;;;;5069080;28;20033;-65
2022/12/27 07:29:25;;;;;;;5.80;1.63;;;14.00;90.70;;;;;;5072979;28;20040;-67
2022/12/27 07:31:50;;;;;;;4.75;1.60;;;14.00;91.90;;;;;;5072513;28;20052;-67
2022/12/27 07:34:16;;;;;;;5.82;1.55;;;14.00;90.70;;;;;;5072633;28;20052;-67
2022/12/27 07:36:42;;;;;;;6.95;1.90;;;14.00;91.90;;;;;;5065477;28;20044;-65
2022/12/27 07:39:08;;;;;;;5.50;1.70;;;14.30;90.70;;;;;;5069374;28;20044;-66
2022/12/27 07:41:34;;;;;;;6.68;1.70;;;13.90;91.90;;;;;;5067723;28;20438;-66
2022/12/27 07:44:01;;;;;;;6.47;1.75;;;14.00;92.00;;;;;;5036163;28;20045;-68
2022/12/27 07:46:26;;;;;;;6.18;1.48;;;14.00;90.70;;;;;;5067480;28;20375;-68
2022/12/27 07:48:54;;;;;;;5.97;1.60;;;;;;;;;;5067781;28;20048;-72
2022/12/27 07:51:19;;;;;;;4.40;1.45;;;13.90;91.90;;;;;;5071040;28;20044;-73
2022/12/27 07:53:48;;;;;;;7.05;1.67;;;;;;;;;;5076134;28;20186;-71
2022/12/27 07:56:15;;;;;;;5.65;1.60;;;14.20;92.00;;;;;;5074278;28;20131;-71
2022/12/27 07:58:42;;;;;;;6.50;1.50;;;;;;;;;;5068782;28;20415;-71
2022/12/27 08:01:08;;;;;;;4.47;1.45;;;14.00;91.90;;;;;;5062179;28;20044;-71
2022/12/27 08:03:34;;;;;;;6.85;1.83;;;13.90;91.90;;;;;;5075774;28;20052;-72
2022/12/27 08:06:00;;;;;;;5.93;1.80;;;;;;;;;;5075933;28;20040;-72
2022/12/27 08:08:31;;;;;;;6.43;1.63;;;14.20;92.00;;;;;;5075725;28;20221;-70
2022/12/27 08:10:57;;;;;;;6.63;1.75;;;;;;;;;;5072502;28;20041;-72
2022/12/27 08:13:24;;;;;;;5.03;1.60;;;14.10;91.90;;;;;;5075293;28;20529;-69
2022/12/27 08:15:50;;;;;;;4.43;1.58;;;14.00;91.90;;;;;;5065912;28;20049;-66
2022/12/27 08:18:16;;;;;;;5.90;2.00;;;13.90;91.90;;;;;;5033769;28;20046;-66
2022/12/27 08:20:41;;;;;;;5.03;1.92;;;13.90;91.90;;;;;;5041701;28;20032;-66
2022/12/27 08:23:07;;;;;;;7.18;1.85;;;14.10;90.70;;;;;;5075705;28;20036;-67
2022/12/27 08:25:33;;;;;;;5.75;1.60;;;13.90;91.00;;;;;;5075327;28;20033;-68
2022/12/27 08:28:06;;;;;;;7.03;1.95;;;13.90;90.60;;;;;;5075269;28;20044;-68
2022/12/27 08:30:32;;;;;;;6.00;1.67;;;;;;;;;;5075009;28;20111;-67
2022/12/27 08:33:00;;;;;;;6.32;2.08;;;13.80;91.80;;;;;;5046839;28;20048;-70
2022/12/27 08:35:26;;;;;;;4.35;1.63;;;14.00;90.60;;;;;;5035497;28;20068;-68
2022/12/27 08:37:51;;;;;;;5.20;1.60;;;14.00;91.90;;;;;;5035429;28;20464;-67
2022/12/27 08:40:18;;;;;;;4.45;1.70;;;;;;;;;;5034927;28;20041;-66
2022/12/27 08:42:44;;;;;;;4.93;1.60;;;;;;;;;;5060519;28;20048;-68
2022/12/27 08:45:10;;;;;;;6.38;1.70;;;13.80;90.60;;;;;;5075311;28;20051;-68
2022/12/27 08:47:36;;;;;;;5.50;1.70;;;13.90;91.80;;;;;;5066587;28;20045;-69
2022/12/27 08:50:02;;;;;;;5.05;1.27;;;14.10;91.80;;;;;;5048386;28;20154;-68
2022/12/27 08:52:28;;;;;;;7.18;2.25;;;14.10;91.80;;;;;;5047640;28;20155;-69
2022/12/27 08:54:53;;;;;;;6.18;1.83;;;14.10;91.80;;;;;;5074697;28;20040;-67
2022/12/27 08:57:19;;;;;;;6.50;1.90;;;13.90;90.50;;;;;;5075056;28;20083;-69
2022/12/27 08:59:45;;;;;;;5.47;1.67;;;14.40;92.00;;;;;;5048703;28;20045;-71
2022/12/27 09:02:11;;;;;;;7.18;1.75;;;14.30;91.80;;;;;;5041330;28;20487;-70
2022/12/27 09:04:37;;;;;;;7.90;2.17;;;;;;;;;;5073301;28;20037;-69
2022/12/27 09:07:03;;;;;;;5.22;1.60;;;;;;;;;;5060878;28;20570;-73
2022/12/27 09:09:29;;;;;;;4.32;1.40;;;14.10;91.80;;;;;;5034496;28;20041;-72
2022/12/27 09:11:55;;;;;;;4.60;1.70;;;14.10;90.50;;;;;;5034117;28;20187;-72
2022/12/27 09:14:21;;;;;;;6.70;1.95;;;14.00;91.70;;;;;;5049494;28;20110;-72
2022/12/27 09:16:47;;;;;;;10.35;2.35;;;;;;;;;;5063981;28;20513;-73
2022/12/27 09:19:13;;;;;;;8.25;2.13;;;14.20;91.60;;;;;;5074201;28;20068;-72
2022/12/27 09:21:40;;;;;;;7.13;2.03;;;14.10;91.60;;;;;;5072487;28;20468;-71
2022/12/27 09:24:09;;;;;;;6.28;2.30;;;14.10;91.70;;;;;;5065666;28;20110;-72
2022/12/27 09:26:34;;;;;;;7.95;1.88;;;13.80;91.60;;;;;;5068233;28;20076;-72
2022/12/27 09:29:00;;;;;;;7.85;1.70;;;14.20;91.70;;;;;;5073933;28;20071;-73
2022/12/27 09:31:27;;;;;;;5.35;1.90;;;;;;;;;;5073822;28;20138;-66
2022/12/27 09:33:53;;;;;;;7.00;2.10;;;14.20;91.70;;;;;;5066719;28;20093;-67
2022/12/27 09:36:20;;;;;;;8.40;1.90;;;;;;;;;;5070110;28;20799;-64
2022/12/27 09:38:46;;;;;;;5.95;1.88;;;13.80;91.70;;;;;;5053717;28;20049;-71
2022/12/27 09:41:34;;;;;;;7.43;2.17;;;14.20;89.90;;;;;;5046495;28;20053;-72
2022/12/27 09:44:17;;;;;;;5.35;1.58;;;14.40;89.70;;;;;;5072270;28;20095;-69
2022/12/27 09:46:43;;;;;;;8.98;2.00;;;14.30;90.80;;;;;;5069282;28;20421;-67
2022/12/27 09:49:13;;;;;;;6.75;2.20;;;14.10;90.20;;;;;;5071864;28;20048;-67
2022/12/27 09:51:45;;;;;;;4.43;1.60;;;;;;;;;;5052009;28;20048;-71
2022/12/27 09:54:20;;;;;;;8.05;1.70;;;14.20;89.50;;;;;;5057497;28;20042;-67
2022/12/27 09:56:45;;;;;;;5.35;2.00;;;14.20;91.70;;;;;;5071977;28;20502;-67
2022/12/27 09:59:31;;;;;;;9.75;1.98;;;14.30;91.70;;;;;;5038454;28;20044;-67
2022/12/27 10:01:57;;;;;;;7.78;1.88;;;;;;;;;;5037943;28;20376;-72
2022/12/27 10:04:23;;;;;;;5.90;1.90;;;14.30;91.80;;;;;;5053467;28;20064;-71
2022/12/27 10:06:48;;;;;;;5.40;2.13;;;13.90;91.70;;;;;;5070707;28;20040;-70
2022/12/27 10:09:33;;;;;;;5.32;1.73;;;;;;;;;;5070904;28;20219;-71
2022/12/27 10:12:32;;;;;;;7.10;2.05;;;14.20;90.60;;;;;;5073099;28;20055;-68
2022/12/27 10:15:23;;;;;;;7.68;1.90;;;14.10;90.00;;;;;;5045337;28;20049;-66
2022/12/27 10:17:54;;;;;;;6.07;1.80;;;14.30;90.50;;;;;;5033251;28;20052;-64
2022/12/27 10:20:30;;;;;;;7.45;2.30;;;;;;;;;;5029601;28;20050;-70
2022/12/27 10:23:01;;;;;;;6.90;2.03;;;14.60;91.70;;;;;;5030436;28;20053;-67
2022/12/27 10:25:27;;;;;;;5.97;1.90;;;14.20;91.70;;;;;;5014691;28;20056;-67
2022/12/27 10:27:55;;;;;;;6.53;1.70;;;14.60;91.90;;;;;;5067653;28;20045;-68
2022/12/27 10:30:21;;;;;;;5.95;1.73;;;14.50;91.80;;;;;;5051457;28;20447;-67
2022/12/27 10:32:47;;;;;;;6.07;2.00;;;14.60;91.80;;;;;;5046873;28;20129;-67
2022/12/27 10:35:17;;;;;;;6.38;2.00;;;14.50;90.60;;;;;;5033202;28;20046;-67
2022/12/27 10:37:43;;;;;;;6.35;2.00;;;14.70;91.90;;;;;;5033364;28;20429;-67
2022/12/27 10:40:37;;;;;;;7.88;2.00;;;14.50;90.60;;;;;;5054392;28;20044;-65
2022/12/27 10:43:24;;;;;;;7.88;2.20;;;14.80;90.70;;;;;;5071915;28;20053;-72
2022/12/27 10:45:50;;;;;;;6.40;1.90;;;14.80;92.00;;;;;;5055618;28;20044;-72
2022/12/27 10:48:23;;;;;;;6.93;2.03;;;;;;;;;;5072196;28;20551;-73
2022/12/27 10:50:53;;;;;;;8.38;2.28;;;14.80;89.70;;;;;;5063020;28;20036;-72
2022/12/27 10:53:45;;;;;;;6.13;1.75;;;15.00;90.40;;;;;;5068678;28;20044;-73
2022/12/27 10:56:24;;;;;;;7.15;2.22;;;15.10;91.40;;;;;;5042330;28;20123;-70
2022/12/27 10:58:54;;;;;;;6.72;2.10;;;15.10;91.90;;;;;;5069570;28;20119;-73
2022/12/27 11:01:31;;;;;;;5.22;1.65;;;15.00;90.10;;;;;;5072560;28;20147;-70
2022/12/27 11:04:18;;;;;;;7.88;1.95;;;15.00;90.10;;;;;;5068114;28;20074;-72
2022/12/27 11:06:46;;;;;;;7.47;2.22;;;14.80;92.00;;;;;;5046561;28;20270;-70
2022/12/27 11:09:29;;;;;;;4.97;1.73;;;15.10;92.00;;;;;;5032882;28;20037;-73
2022/12/27 11:11:55;;;;;;;;;;;;;;;;;;5043690;28;20048;-69
2022/12/27 11:14:21;;;;;;;6.22;2.05;;;;;;;;;;5069963;28;20406;-68
2022/12/27 11:16:47;;;;;;;7.28;2.60;;;15.10;92.00;;;;;;5074394;28;20067;-69
2022/12/27 11:19:24;;;;;;;7.03;1.98;;;14.90;90.00;;;;;;5075592;28;20041;-71
2022/12/27 11:21:51;;;;;;;6.80;1.90;;;;;;;;;;5059821;28;20044;-69
2022/12/27 11:24:16;;;;;;;6.75;1.83;;;15.00;91.80;;;;;;5042823;28;20048;-68
2022/12/27 11:26:52;;;;;;;7.05;1.70;;;14.90;91.80;;;;;;5055350;28;20047;-68
2022/12/27 11:29:19;;;;;;;6.72;1.67;;;;;;;;;;5040518;28;20040;-68
2022/12/27 11:31:47;;;;;;;6.85;1.88;;;15.10;91.80;;;;;;5072948;28;20099;-68
2022/12/27 11:34:17;;;;;;;8.75;2.15;;;15.30;90.40;;;;;;5056764;28;20071;-68
2022/12/27 11:36:46;;;;;;;6.45;1.98;;;15.10;91.90;;;;;;5075145;28;20052;-73
2022/12/27 11:39:37;;;;;;;7.10;1.90;;;15.30;90.00;;;;;;5061949;28;20056;-70
2022/12/27 11:42:29;;;;;;;8.32;2.20;;;15.00;91.70;;;;;;5069090;28;20128;-72
2022/12/27 11:45:14;;;;;;;6.68;1.83;;;15.30;91.80;;;;;;5064907;28;20098;-69
2022/12/27 11:47:50;;;;;;;8.85;1.95;;;15.50;91.80;;;;;;5057261;28;20076;-67
2022/12/27 11:51:01;;;;;;;5.25;1.75;;;15.50;90.00;;;;;;5071745;28;20561;-73
2022/12/27 11:53:56;;;;;;;6.95;2.17;;;15.60;89.90;;;;;;5071747;28;20041;-72
2022/12/27 11:56:27;;;;;;;6.00;1.98;;;15.30;91.70;;;;;;5072521;28;20048;-69
2022/12/27 11:59:15;;;;;;;5.00;1.85;;;15.50;90.50;;;;;;5034922;28;20373;-69
2022/12/27 12:02:00;;;;;;;7.55;2.10;;;;;;;;;;5068653;28;20088;-73
2022/12/27 12:04:35;;;;;;;5.05;1.88;;;15.40;91.70;;;;;;5075713;28;20045;-73
2022/12/27 12:07:13;;;;;;;7.55;2.00;;;15.30;91.70;;;;;;5074654;28;20032;-72
2022/12/27 12:09:44;;;;;;;4.55;1.73;;;15.50;91.70;;;;;;5072965;28;20456;-69
2022/12/27 12:12:44;;;;;;;6.55;2.20;;;15.60;90.00;;;;;;5075588;28;20101;-67
2022/12/27 12:15:43;;;;;;;8.15;2.13;;;15.30;89.80;;;;;;5043217;28;20060;-68
2022/12/27 12:18:21;;;;;;;6.07;1.70;;;15.40;91.70;;;;;;5041790;28;20040;-68
2022/12/27 12:20:55;;;;;;;9.23;1.90;;;15.40;91.70;;;;;;5056122;28;20380;-72
2022/12/27 12:23:40;;;;;;;6.70;1.73;;;15.60;91.80;;;;;;5075044;28;20044;-71
2022/12/27 12:26:06;;;;;;;7.50;1.80;;;;;;;;;;5075302;28;20045;-73
2022/12/27 12:28:43;;;;;;;6.80;1.85;;;15.40;91.70;;;;;;5075141;28;20040;-68
2022/12/27 12:31:26;;;;;;;5.10;1.95;;;15.50;90.50;;;;;;5065461;28;20045;-68
2022/12/27 12:33:59;;;;;;;4.78;1.67;;;15.50;91.70;;;;;;5051274;28;20056;-69
2022/12/27 12:36:42;;;;;;;5.50;1.75;;;15.40;91.70;;;;;;5073820;28;20452;-68
2022/12/27 12:39:32;;;;;;;7.97;2.05;;;15.30;89.90;;;;;;5074053;28;20060;-68
2022/12/27 12:42:18;;;;;;;4.97;1.65;;;15.50;90.50;;;;;;5055183;28;20052;-68
2022/12/27 12:45:15;;;;;;;5.55;1.77;;;15.40;90.70;;;;;;5033839;28;20056;-69
2022/12/27 12:47:47;;;;;;;6.80;1.90;;;15.40;91.70;;;;;;5067640;28;20555;-69
2022/12/27 12:50:32;;;;;;;8.27;2.17;;;15.20;90.00;;;;;;5034907;28;20132;-69
2022/12/27 12:53:19;;;;;;;6.05;1.92;;;15.60;89.60;;;;;;5048688;28;20490;-72
2022/12/27 12:55:53;;;;;;;6.07;1.95;;;15.50;90.30;;;;;;5054338;28;20498;-71
2022/12/27 12:58:42;;;;;;;8.60;1.77;;;15.30;90.10;;;;;;5037929;28;20102;-72
2022/12/27 13:01:36;;;;;;;6.45;1.50;;;15.30;89.90;;;;;;5053059;28;20091;-71
2022/12/27 13:04:01;;;;;;;;;;;15.00;90.30;;;;;;5064938;28;20033;-72
2022/12/27 13:06:49;;;;;;;6.78;1.90;;;15.30;91.70;;;;;;5040187;28;19944;-69
2022/12/27 13:09:17;;;;;;;7.40;1.58;;;15.40;91.80;;;;;;5034698;28;20465;-70
2022/12/27 13:11:45;;;;;;;7.90;1.67;;;15.40;91.80;;;;;;5034473;28;20065;-69
2022/12/27 13:14:53;;;;;;;7.43;2.10;;;15.30;90.60;;;;;;5033146;28;20081;-71
2022/12/27 13:17:31;;;;;;;8.40;1.80;;;15.20;89.80;;;;;;4992543;28;20054;-69
2022/12/27 13:20:00;;;;;;;6.47;1.70;;;15.30;91.70;;;;;;4992488;28;20059;-71
2022/12/27 13:22:44;;;;;;;7.55;1.65;;;15.30;91.70;;;;;;4992761;28;20054;-70
2022/12/27 13:25:16;;;;;;;8.55;1.70;;;15.10;91.70;;;;;;4992697;28;20133;-71
2022/12/27 13:28:01;;;;;;;8.95;2.00;;;;;;;;;;4992621;28;20061;-70
2022/12/27 13:30:37;;;;;;;5.63;1.42;;;15.00;91.70;;;;;;4992334;28;20034;-70
2022/12/27 13:33:20;;;;;;;6.30;1.70;;;15.00;90.10;;;;;;4976272;28;20110;-72
2022/12/27 13:35:55;;;;;;;7.78;1.70;;;14.80;91.60;;;;;;4976216;28;20528;-71
2022/12/27 13:38:33;;;;;;;7.85;2.08;;;14.90;90.30;;;;;;4991807;28;20050;-69
2022/12/27 13:41:08;;;;;;;8.15;1.80;;;14.70;91.60;;;;;;4992186;28;20100;-69
2022/12/27 13:43:54;;;;;;;9.65;2.33;;;14.80;89.30;;;;;;4992524;28;20046;-70
2022/12/27 13:46:49;;;;;;;5.53;1.73;;;14.90;89.40;;;;;;4992146;28;20493;-70
2022/12/27 13:49:52;;;;;;;7.30;2.13;;;14.90;91.60;;;;;;4987087;28;20085;-69
2022/12/27 13:52:36;;;;;;;5.57;1.90;;;14.80;89.60;;;;;;4953774;28;20133;-70
2022/12/27 13:55:21;;;;;;;6.03;2.05;;;14.90;91.60;;;;;;4992080;28;20050;-70
2022/12/27 13:58:18;;;;;;;5.35;1.70;;;14.80;91.60;;;;;;4991933;28;20129;-69
2022/12/27 14:00:53;;;;;;;9.85;2.95;;;14.60;91.60;;;;;;4953141;29;20583;-69
2022/12/27 14:03:40;;;;;;;6.45;1.98;;;;;;;;;;4969819;28;20049;-67
2022/12/27 14:06:44;;;;;;;6.13;1.73;;;14.80;89.60;;;;;;4972428;28;20046;-70
2022/12/27 14:09:29;;;;;;;7.35;2.10;;;14.60;91.60;;;;;;4972573;28;20113;-70
2022/12/27 14:12:30;;;;;;;7.90;2.30;;;14.90;89.60;;;;;;4972284;28;20138;-68
2022/12/27 14:14:56;;;;;;;6.72;1.80;;;14.80;91.60;;;;;;4972690;28;20497;-68
2022/12/27 14:17:49;;;;;;;6.93;2.17;;;14.70;91.60;;;;;;4988313;28;20054;-70
2022/12/27 14:20:33;;;;;;;8.80;2.50;;;;;;;;;;4972039;28;20047;-66
2022/12/27 14:23:02;;;;;;;6.80;1.95;;;;;;;;;;4972172;28;20061;-69
2022/12/27 14:26:01;;;;;;;7.85;2.10;;;14.50;89.30;;;;;;4972514;28;20046;-70
2022/12/27 14:28:52;;;;;;;6.45;1.77;;;14.60;89.60;;;;;;4986291;28;20108;-69
2022/12/27 14:31:45;;;;;;;10.40;2.08;;;14.30;91.50;;;;;;4991903;28;20050;-70
2022/12/27 14:34:29;;;;;;;7.80;2.67;;;;;;;;;;4997378;28;20060;-69
2022/12/27 14:37:03;;;;;;;8.68;2.08;;;14.80;91.70;;;;;;5020028;28;20110;-68
2022/12/27 14:40:26;;;;;;;6.10;2.03;;;14.70;90.40;;;;;;5032147;28;20038;-69
2022/12/27 14:43:04;;;;;;;6.93;2.20;;;14.60;91.70;;;;;;4991665;28;20050;-70
2022/12/27 14:45:57;;;;;;;6.53;2.20;;;14.50;89.50;;;;;;4991563;28;20563;-66
2022/12/27 14:48:38;;;;;;;7.95;2.30;;;14.40;89.40;;;;;;4974515;28;20093;-69
2022/12/27 14:51:18;;;;;;;7.57;2.60;;;14.50;90.40;;;;;;4993628;28;20042;-68
2022/12/27 14:54:13;;;;;;;6.90;2.17;;;14.60;91.70;;;;;;4995538;28;20093;-68
2022/12/27 14:57:08;;;;;;;8.00;2.20;;;14.60;90.10;;;;;;4979281;28;20050;-69
2022/12/27 14:59:52;;;;;;;8.30;2.25;;;;;;;;;;4995424;28;20113;-69
2022/12/27 15:02:49;;;;;;;9.10;2.50;;;14.50;91.70;;;;;;4995163;28;20125;-68
2022/12/27 15:05:45;;;;;;;9.43;2.67;;;14.40;89.50;;;;;;4978717;28;20538;-69
2022/12/27 15:08:34;;;;;;;9.75;2.92;;;14.50;91.70;;;;;;4995336;28;20548;-69